Time;durP1;ratioP1;P1;durP2;ratioP2;P2;SDS_P1;SDS_P2;PMS_P1;PMS_P2;Temp;Humidity;BMP_temperature;BMP_pressure;BME280_temperature;BME280_humidity;BME280_pressure;Samples;Min_cycle;Max_cycle;Signal;HPM_P1;HPM_P2
2022/03/19 00:01:29;;;;;;;37.80;20.08;;;;;;;;;;5018905;28;20064;-73
2022/03/19 00:03:54;;;;;;;39.33;21.52;;;;;;;;;;5019662;28;20021;-74
2022/03/19 00:06:19;;;;;;;37.60;21.20;;;;;;;;;;5009617;28;20026;-74
2022/03/19 00:08:45;;;;;;;32.10;19.40;;;;;;;;;;5014123;28;20860;-73
2022/03/19 00:11:11;;;;;;;37.95;20.52;;;;;;;;;;5017964;28;20105;-74
2022/03/19 00:13:36;;;;;;;33.08;19.20;;;;;;;;;;5019954;28;20102;-73
2022/03/19 00:16:01;;;;;;;38.45;21.55;;;;;;;;;;5017926;28;20061;-75
2022/03/19 00:18:27;;;;;;;38.55;22.05;;;;;;;;;;5018121;28;20117;-74
2022/03/19 00:20:53;;;;;;;37.20;20.73;;;;;;;;;;5011369;28;20014;-75
2022/03/19 00:23:18;;;;;;;37.15;21.83;;;;;;;;;;5014237;28;20081;-73
2022/03/19 00:25:43;;;;;;;39.25;21.90;;;;;;;;;;5014061;28;20034;-74
2022/03/19 00:28:09;;;;;;;35.15;20.58;;;;;;;;;;5009863;28;20112;-73
2022/03/19 00:30:34;;;;;;;35.80;21.20;;;;;;;;;;5011341;28;20117;-73
2022/03/19 00:32:59;;;;;;;30.98;19.33;;;;;;;;;;5010882;28;20017;-73
2022/03/19 00:35:24;;;;;;;31.98;19.15;;;;;;;;;;5010977;28;20026;-74
2022/03/19 00:37:51;;;;;;;32.45;18.13;;;;;;;;;;5010952;28;20037;-74
2022/03/19 00:40:17;;;;;;;37.50;19.45;;;;;;;;;;5010526;28;20022;-74
2022/03/19 00:42:43;;;;;;;31.67;17.83;;;;;;;;;;5010622;28;20495;-74
2022/03/19 00:45:09;;;;;;;31.83;18.80;;;;;;;;;;5010765;28;20026;-73
2022/03/19 00:47:34;;;;;;;33.13;18.67;;;;;;;;;;5010609;28;20033;-74
2022/03/19 00:50:00;;;;;;;32.78;19.15;;;;;;;;;;5011896;28;20014;-74
2022/03/19 00:52:25;;;;;;;34.22;19.25;;;;;;;;;;5017584;28;20026;-75
2022/03/19 00:54:50;;;;;;;30.05;18.58;;;;;;;;;;5014610;28;20022;-74
2022/03/19 00:57:15;;;;;;;34.13;19.50;;;;;;;;;;5014581;28;20032;-74
2022/03/19 00:59:41;;;;;;;32.70;18.63;;;;;;;;;;5014446;28;20266;-74
2022/03/19 01:02:06;;;;;;;32.30;19.15;;;;;;;;;;5014809;28;20064;-74
2022/03/19 01:04:31;;;;;;;35.40;18.27;;;;;;;;;;5012748;28;20102;-74
2022/03/19 01:06:56;;;;;;;33.13;18.63;;;;;;;;;;5014147;28;20053;-74
2022/03/19 01:09:22;;;;;;;33.40;19.25;;;;;;;;;;5014051;28;20025;-73
2022/03/19 01:11:47;;;;;;;39.30;20.13;;;;;;;;;;5014300;28;20698;-73
2022/03/19 01:14:12;;;;;;;36.45;19.52;;;;;;;;;;5013867;28;20419;-74
2022/03/19 01:16:38;;;;;;;36.92;20.90;;;;;;;;;;5012740;28;20022;-74
2022/03/19 01:19:03;;;;;;;39.10;21.25;;;;;;;;;;5012595;28;20143;-74
2022/03/19 01:21:29;;;;;;;40.03;21.15;;;;;;;;;;5014000;28;20534;-74
2022/03/19 01:23:54;;;;;;;38.45;21.25;;;;;;;;;;5013933;28;20463;-74
2022/03/19 01:26:19;;;;;;;33.97;20.20;;;;;;;;;;5012461;28;20070;-74
2022/03/19 01:28:44;;;;;;;37.50;21.17;;;;;;;;;;5014149;28;20434;-74
2022/03/19 01:31:11;;;;;;;38.80;21.60;;;;;;;;;;5014390;28;20030;-74
2022/03/19 01:33:36;;;;;;;43.38;21.65;;;;;;;;;;5013544;28;20068;-74
2022/03/19 01:36:01;;;;;;;36.70;21.00;;;;;;;;;;5013699;28;20483;-74
2022/03/19 01:38:26;;;;;;;38.63;20.98;;;;;;;;;;5013757;28;20018;-74
2022/03/19 01:40:52;;;;;;;39.88;21.27;;;;;;;;;;5012214;28;20080;-74
2022/03/19 01:43:17;;;;;;;40.53;22.38;;;;;;;;;;5013481;28;21015;-73
2022/03/19 01:45:42;;;;;;;46.28;23.10;;;;;;;;;;5013531;28;20083;-74
2022/03/19 01:48:07;;;;;;;42.25;24.48;;;;;;;;;;5015154;28;20168;-73
2022/03/19 01:50:33;;;;;;;43.75;23.90;;;;;;;;;;5013408;28;20054;-74
2022/03/19 01:52:58;;;;;;;48.58;23.77;;;;;;;;;;5012040;28;20089;-74
2022/03/19 01:55:24;;;;;;;39.72;22.63;;;;;;;;;;5013549;28;20018;-74
2022/03/19 01:57:50;;;;;;;40.38;23.08;;;;;;;;;;5013374;28;20010;-74
2022/03/19 02:00:22;;;;;;;44.22;24.42;;;;;;;;;;5011745;28;20026;-74
2022/03/19 02:02:49;;;;;;;47.83;23.40;;;;;;;;;;5013049;28;20534;-74
2022/03/19 02:05:16;;;;;;;45.03;24.08;;;;;;;;;;5011722;28;20030;-74
2022/03/19 02:07:42;;;;;;;43.03;24.70;;;;;;;;;;5011760;28;20026;-74
2022/03/19 02:10:07;;;;;;;43.53;23.80;;;;;;;;;;5012989;28;20010;-74
2022/03/19 02:12:33;;;;;;;44.75;24.58;;;;;;;;;;5011745;28;20446;-74
2022/03/19 02:14:58;;;;;;;43.85;25.20;;;;;;;;;;5011646;28;20021;-74
2022/03/19 02:17:24;;;;;;;39.85;23.80;;;;;;;;;;5011911;28;20030;-74
2022/03/19 02:19:51;;;;;;;41.40;22.90;;;;;;;;;;5013786;28;20077;-74
2022/03/19 02:22:17;;;;;;;41.70;23.60;;;;;;;;;;5013770;28;20462;-75
2022/03/19 02:27:26;;;;;;;45.00;25.23;;;;;;;;;;5014119;28;20510;-73
2022/03/19 02:29:52;;;;;;;41.40;24.60;;;;;;;;;;5012226;28;20021;-74
2022/03/19 02:32:17;;;;;;;45.65;25.10;;;;;;;;;;5013409;28;20048;-74
2022/03/19 02:34:42;;;;;;;43.42;24.95;;;;;;;;;;5014413;28;20022;-74
2022/03/19 02:37:08;;;;;;;43.63;24.17;;;;;;;;;;5011555;28;20029;-74
2022/03/19 02:39:33;;;;;;;44.33;25.02;;;;;;;;;;5011318;28;20442;-74
2022/03/19 02:41:59;;;;;;;47.13;24.23;;;;;;;;;;5013459;28;20453;-74
2022/03/19 02:44:25;;;;;;;51.35;24.13;;;;;;;;;;5012322;28;20048;-73
2022/03/19 02:46:51;;;;;;;44.95;23.80;;;;;;;;;;5010996;28;20591;-74
2022/03/19 02:49:17;;;;;;;48.20;25.88;;;;;;;;;;5012319;28;20048;-74
2022/03/19 02:51:43;;;;;;;45.15;25.48;;;;;;;;;;5010893;28;20072;-74
2022/03/19 02:54:10;;;;;;;46.30;27.88;;;;;;;;;;5012200;28;20033;-74
2022/03/19 02:56:37;;;;;;;45.35;26.92;;;;;;;;;;5012100;28;20020;-74
2022/03/19 02:59:12;;;;;;;47.38;25.30;;;;;;;;;;5010506;28;20095;-73
2022/03/19 03:01:38;;;;;;;52.30;27.67;;;;;;;;;;5012414;28;20053;-74
2022/03/19 03:04:03;;;;;;;55.17;28.38;;;;;;;;;;5011949;28;20099;-74
2022/03/19 03:06:33;;;;;;;49.10;27.05;;;;;;;;;;5011916;28;20053;-74
2022/03/19 03:08:59;;;;;;;47.22;25.92;;;;;;;;;;5011869;28;20045;-74
2022/03/19 03:11:24;;;;;;;54.22;27.80;;;;;;;;;;5011652;28;20535;-74
2022/03/19 03:13:49;;;;;;;51.30;27.50;;;;;;;;;;5009444;28;20050;-74
2022/03/19 03:16:15;;;;;;;55.05;29.52;;;;;;;;;;5011734;28;20037;-74
2022/03/19 03:18:40;;;;;;;51.22;28.17;;;;;;;;;;5011696;28;20052;-74
2022/03/19 03:21:05;;;;;;;52.72;28.77;;;;;;;;;;5010398;28;20062;-74
2022/03/19 03:23:31;;;;;;;53.75;27.63;;;;;;;;;;5011498;28;20028;-74
2022/03/19 03:25:57;;;;;;;52.05;28.77;;;;;;;;;;5011489;28;20072;-73
2022/03/19 03:28:22;;;;;;;50.60;28.40;;;;;;;;;;5011399;28;20006;-74
2022/03/19 03:30:47;;;;;;;57.17;30.23;;;;;;;;;;5010565;28;20072;-74
2022/03/19 03:33:13;;;;;;;56.53;28.85;;;;;;;;;;5011257;28;20018;-74
2022/03/19 03:35:38;;;;;;;54.72;28.65;;;;;;;;;;5010330;28;20100;-74
2022/03/19 03:38:03;;;;;;;56.33;28.55;;;;;;;;;;5011778;28;20030;-74
2022/03/19 03:40:29;;;;;;;48.28;28.58;;;;;;;;;;5011459;28;20030;-74
2022/03/19 03:42:54;;;;;;;55.83;27.67;;;;;;;;;;5009774;28;20037;-74
2022/03/19 03:45:20;;;;;;;53.22;30.98;;;;;;;;;;5011249;28;20469;-74
2022/03/19 03:47:45;;;;;;;51.53;28.10;;;;;;;;;;5011292;28;20117;-74
2022/03/19 03:50:11;;;;;;;59.13;27.15;;;;;;;;;;5011027;28;20022;-73
2022/03/19 03:52:36;;;;;;;46.63;25.80;;;;;;;;;;5011251;28;20037;-74
2022/03/19 03:55:03;;;;;;;47.42;26.63;;;;;;;;;;5011593;28;20022;-74
2022/03/19 03:57:28;;;;;;;51.15;27.27;;;;;;;;;;5009821;28;20119;-73
2022/03/19 03:59:54;;;;;;;50.80;26.33;;;;;;;;;;5010996;28;20064;-73
2022/03/19 04:02:19;;;;;;;52.40;27.60;;;;;;;;;;5011434;28;20530;-74
2022/03/19 04:04:44;;;;;;;45.92;24.63;;;;;;;;;;5010983;28;20024;-73
2022/03/19 04:07:09;;;;;;;43.30;26.17;;;;;;;;;;5011117;28;20030;-74
2022/03/19 04:09:35;;;;;;;50.40;25.58;;;;;;;;;;5009626;28;20080;-73
2022/03/19 04:12:03;;;;;;;50.33;26.75;;;;;;;;;;5009199;28;20033;-74
2022/03/19 04:14:28;;;;;;;45.92;26.90;;;;;;;;;;5009470;28;20053;-74
2022/03/19 04:16:53;;;;;;;50.67;26.77;;;;;;;;;;5009437;28;20033;-74
2022/03/19 04:19:19;;;;;;;50.95;27.00;;;;;;;;;;5009504;28;20467;-73
2022/03/19 04:21:44;;;;;;;53.72;28.40;;;;;;;;;;5009510;28;20439;-73
2022/03/19 04:24:09;;;;;;;56.25;27.67;;;;;;;;;;5011361;28;20014;-74
2022/03/19 04:26:34;;;;;;;57.30;28.65;;;;;;;;;;5014694;28;20065;-74
2022/03/19 04:29:00;;;;;;;49.58;27.60;;;;;;;;;;5014905;28;20036;-74
2022/03/19 04:31:25;;;;;;;49.92;27.40;;;;;;;;;;5015092;28;20025;-74
2022/03/19 04:33:50;;;;;;;50.08;26.55;;;;;;;;;;5015470;28;20017;-74
2022/03/19 04:36:32;;;;;;;55.88;27.65;;;;;;;;;;5013399;28;20056;-73
2022/03/19 04:38:58;;;;;;;49.60;27.05;;;;;;;;;;5013337;28;20029;-74
2022/03/19 04:41:23;;;;;;;48.95;26.23;;;;;;;;;;5015164;28;20013;-74
2022/03/19 04:43:48;;;;;;;48.70;25.77;;;;;;;;;;5017140;28;20022;-74
2022/03/19 04:46:14;;;;;;;53.13;28.63;;;;;;;;;;5014699;28;20380;-73
2022/03/19 04:48:42;;;;;;;52.33;28.40;;;;;;;;;;5013333;28;20502;-73
2022/03/19 04:51:07;;;;;;;51.78;27.50;;;;;;;;;;5014508;28;20029;-74
2022/03/19 04:53:34;;;;;;;57.15;28.38;;;;;;;;;;5014332;28;20494;-74
2022/03/19 04:55:59;;;;;;;47.28;26.17;;;;;;;;;;5013016;28;20025;-74
2022/03/19 04:58:25;;;;;;;47.72;27.13;;;;;;;;;;5014430;28;20076;-74
2022/03/19 05:00:50;;;;;;;47.65;26.05;;;;;;;;;;5013258;28;20135;-74
2022/03/19 05:03:15;;;;;;;49.13;27.13;;;;;;;;;;5014136;28;20022;-75
2022/03/19 05:05:40;;;;;;;49.67;27.33;;;;;;;;;;5014069;28;20103;-73
2022/03/19 05:08:06;;;;;;;48.22;27.30;;;;;;;;;;5012834;28;20026;-74
2022/03/19 05:13:16;;;;;;;48.72;25.23;;;;;;;;;;5014192;28;20048;-75
2022/03/19 05:15:41;;;;;;;47.75;26.60;;;;;;;;;;5014223;28;20111;-74
2022/03/19 05:18:07;;;;;;;45.67;26.85;;;;;;;;;;5013985;28;20013;-74
2022/03/19 05:20:32;;;;;;;49.03;26.17;;;;;;;;;;5014001;28;20065;-73
2022/03/19 05:22:57;;;;;;;49.92;27.27;;;;;;;;;;5013890;28;20488;-73
2022/03/19 05:25:22;;;;;;;55.05;28.20;;;;;;;;;;5013857;28;20022;-73
2022/03/19 05:27:48;;;;;;;53.65;27.77;;;;;;;;;;5014302;28;20025;-73
2022/03/19 05:30:13;;;;;;;48.00;28.83;;;;;;;;;;5013863;28;20025;-74
2022/03/19 05:32:39;;;;;;;51.20;28.05;;;;;;;;;;5014180;28;20525;-74
2022/03/19 05:35:05;;;;;;;52.08;27.83;;;;;;;;;;5012930;28;20029;-74
2022/03/19 05:37:30;;;;;;;49.00;26.38;;;;;;;;;;5013450;28;20022;-74
2022/03/19 05:39:56;;;;;;;45.63;26.27;;;;;;;;;;5013571;28;20026;-74
2022/03/19 05:42:21;;;;;;;46.20;25.73;;;;;;;;;;5013355;28;20501;-74
2022/03/19 05:44:47;;;;;;;45.50;25.60;;;;;;;;;;5013554;28;20056;-74
2022/03/19 05:47:12;;;;;;;46.42;26.20;;;;;;;;;;5013442;28;20453;-74
2022/03/19 05:49:37;;;;;;;49.70;26.05;;;;;;;;;;5013584;28;20419;-74
2022/03/19 05:52:03;;;;;;;49.63;25.17;;;;;;;;;;5014194;28;20022;-74
2022/03/19 05:54:29;;;;;;;48.50;28.33;;;;;;;;;;5014234;28;20022;-74
2022/03/19 05:56:54;;;;;;;44.63;24.63;;;;;;;;;;5013930;28;20026;-75
2022/03/19 05:59:20;;;;;;;48.35;26.27;;;;;;;;;;5012983;28;20368;-73
2022/03/19 06:01:45;;;;;;;47.33;25.33;;;;;;;;;;5013516;28;20076;-74
2022/03/19 06:04:10;;;;;;;50.40;25.90;;;;;;;;;;5011752;28;20032;-73
2022/03/19 06:06:36;;;;;;;44.78;24.48;;;;;;;;;;5012991;28;20471;-74
2022/03/19 06:09:01;;;;;;;49.90;26.70;;;;;;;;;;5013065;28;20028;-74
2022/03/19 06:11:27;;;;;;;47.47;25.63;;;;;;;;;;5012981;28;20076;-74
2022/03/19 06:13:52;;;;;;;47.22;26.60;;;;;;;;;;5012804;28;20137;-74
2022/03/19 06:16:18;;;;;;;50.83;27.27;;;;;;;;;;5013083;28;20014;-74
2022/03/19 06:18:46;;;;;;;48.95;26.63;;;;;;;;;;5012067;28;20105;-74
2022/03/19 06:21:11;;;;;;;45.33;26.00;;;;;;;;;;5013621;28;20006;-75
2022/03/19 06:23:36;;;;;;;45.08;25.92;;;;;;;;;;5013066;28;20022;-74
2022/03/19 06:26:02;;;;;;;45.83;26.15;;;;;;;;;;5012647;28;20026;-74
2022/03/19 06:28:27;;;;;;;48.58;26.45;;;;;;;;;;5012744;28;20372;-74
2022/03/19 06:30:52;;;;;;;45.10;24.98;;;;;;;;;;5012659;28;20036;-74
2022/03/19 06:33:18;;;;;;;50.60;26.00;;;;;;;;;;5012813;28;20088;-74
2022/03/19 06:38:28;;;;;;;47.63;25.83;;;;;;;;;;5012390;28;20037;-74
2022/03/19 06:40:53;;;;;;;47.53;26.58;;;;;;;;;;5012480;28;20022;-74
2022/03/19 06:43:18;;;;;;;49.10;27.02;;;;;;;;;;5011059;28;20030;-74
2022/03/19 06:45:44;;;;;;;49.40;25.27;;;;;;;;;;5012184;28;20041;-74
2022/03/19 06:48:09;;;;;;;43.40;25.00;;;;;;;;;;5012354;28;20029;-75
2022/03/19 06:50:34;;;;;;;48.72;25.13;;;;;;;;;;5012566;28;20053;-75
2022/03/19 06:53:01;;;;;;;42.33;24.42;;;;;;;;;;5013316;28;20395;-75
2022/03/19 06:55:27;;;;;;;39.60;22.08;;;;;;;;;;5012443;28;20101;-75
2022/03/19 06:57:53;;;;;;;44.00;23.30;;;;;;;;;;5012420;28;20030;-74
2022/03/19 07:00:18;;;;;;;39.28;22.88;;;;;;;;;;5010992;28;20087;-74
2022/03/19 07:02:47;;;;;;;36.38;23.27;;;;;;;;;;5011273;28;20060;-74
2022/03/19 07:05:12;;;;;;;45.45;24.98;;;;;;;;;;5011363;28;20490;-73
2022/03/19 07:07:38;;;;;;;39.47;24.05;;;;;;;;;;5013025;28;20029;-73
2022/03/19 07:10:04;;;;;;;40.03;25.35;;;;;;;;;;5011851;28;20018;-74
2022/03/19 07:12:29;;;;;;;43.10;26.58;;;;;;;;;;5014664;28;20124;-74
2022/03/19 07:14:54;;;;;;;46.00;24.65;;;;;;;;;;5018690;28;20443;-74
2022/03/19 07:17:20;;;;;;;52.25;24.70;;;;;;;;;;5019405;28;20087;-76
2022/03/19 07:19:45;;;;;;;42.10;25.40;;;;;;;;;;5009896;28;20113;-74
2022/03/19 07:22:10;;;;;;;37.55;22.77;;;;;;;;;;5014110;28;20021;-73
2022/03/19 07:24:37;;;;;;;37.97;22.73;;;;;;;;;;5016712;28;20022;-74
2022/03/19 07:27:02;;;;;;;39.72;23.98;;;;;;;;;;5014059;28;20038;-74
2022/03/19 07:29:27;;;;;;;41.47;23.60;;;;;;;;;;5020413;28;20373;-73
2022/03/19 07:31:53;;;;;;;43.25;23.63;;;;;;;;;;5021163;28;20033;-81
2022/03/19 07:34:18;;;;;;;38.35;22.80;;;;;;;;;;5012217;28;20791;-75
2022/03/19 07:36:44;;;;;;;34.35;22.30;;;;;;;;;;5018758;28;20044;-75
2022/03/19 07:39:09;;;;;;;76.63;39.85;;;;;;;;;;5018561;28;20225;-75
2022/03/19 07:41:48;;;;;;;62.92;36.97;;;;;;;;;;5019351;28;20022;-75
2022/03/19 07:44:14;;;;;;;54.22;32.67;;;;;;;;;;5018265;28;20014;-78
2022/03/19 07:46:42;;;;;;;57.63;33.42;;;;;;;;;;5021395;28;20095;-81
2022/03/19 07:49:07;;;;;;;39.67;23.33;;;;;;;;;;5016973;28;20478;-76
2022/03/19 07:51:32;;;;;;;38.67;24.08;;;;;;;;;;5018494;28;20072;-78
2022/03/19 07:53:58;;;;;;;41.37;26.03;;;;;;;;;;5019630;28;20040;-76
2022/03/19 07:56:24;;;;;;;39.75;22.42;;;;;;;;;;5017579;28;20358;-74
2022/03/19 07:58:50;;;;;;;34.50;19.67;;;;;;;;;;5012787;28;20113;-74
2022/03/19 08:01:19;;;;;;;31.10;19.85;;;;;;;;;;5015401;28;20100;-74
2022/03/19 08:03:47;;;;;;;31.52;20.73;;;;;;;;;;5015800;28;20104;-73
2022/03/19 08:06:13;;;;;;;30.67;20.00;;;;;;;;;;5016092;28;20479;-74
2022/03/19 08:08:38;;;;;;;31.00;20.85;;;;;;;;;;5010796;28;20032;-74
2022/03/19 08:11:04;;;;;;;31.63;21.17;;;;;;;;;;5010783;28;20057;-74
2022/03/19 08:13:29;;;;;;;31.05;20.55;;;;;;;;;;5011871;28;20287;-76
2022/03/19 08:15:55;;;;;;;35.30;22.95;;;;;;;;;;5010599;28;20071;-76
2022/03/19 08:18:20;;;;;;;32.20;21.80;;;;;;;;;;5010777;28;20391;-75
2022/03/19 08:20:46;;;;;;;30.13;20.40;;;;;;;;;;5011048;28;20029;-75
2022/03/19 08:23:11;;;;;;;32.95;22.00;;;;;;;;;;5010897;28;20436;-75
2022/03/19 08:25:37;;;;;;;27.65;20.30;;;;;;;;;;5010118;28;20444;-75
2022/03/19 08:28:03;;;;;;;36.47;22.90;;;;;;;;;;5010169;28;20064;-74
2022/03/19 08:30:28;;;;;;;31.80;21.00;;;;;;;;;;5010781;28;20022;-75
2022/03/19 08:32:53;;;;;;;29.73;21.07;;;;;;;;;;5011280;28;20021;-74
2022/03/19 08:35:18;;;;;;;28.67;20.33;;;;;;;;;;5010812;28;20026;-75
2022/03/19 08:37:43;;;;;;;29.00;21.27;;;;;;;;;;5009784;28;20264;-75
2022/03/19 08:40:15;;;;;;;28.08;19.02;;;;;;;;;;5010693;28;20271;-75
2022/03/19 08:42:41;;;;;;;27.88;18.77;;;;;;;;;;5010683;28;20187;-75
2022/03/19 08:45:06;;;;;;;27.50;19.13;;;;;;;;;;5012063;28;20105;-74
2022/03/19 08:47:31;;;;;;;26.85;18.60;;;;;;;;;;5011136;28;20042;-74
2022/03/19 08:49:57;;;;;;;27.35;17.85;;;;;;;;;;5010710;28;20022;-75
2022/03/19 08:52:22;;;;;;;26.83;17.87;;;;;;;;;;5010985;28;20014;-75
2022/03/19 08:54:47;;;;;;;25.20;17.43;;;;;;;;;;5010866;28;20659;-74
2022/03/19 08:57:14;;;;;;;30.63;18.27;;;;;;;;;;5010706;28;20296;-74
2022/03/19 08:59:39;;;;;;;30.15;18.98;;;;;;;;;;5010808;28;20264;-75
2022/03/19 09:02:04;;;;;;;27.58;16.50;;;;;;;;;;5012136;28;20022;-75
2022/03/19 09:04:31;;;;;;;24.70;15.97;;;;;;;;;;5015561;28;20022;-75
2022/03/19 09:06:57;;;;;;;25.52;17.67;;;;;;;;;;5016851;28;20053;-75
2022/03/19 09:09:22;;;;;;;25.98;16.52;;;;;;;;;;5010166;28;20034;-74
2022/03/19 09:11:48;;;;;;;25.27;17.27;;;;;;;;;;5013360;28;20022;-74
2022/03/19 09:14:14;;;;;;;27.02;17.10;;;;;;;;;;5014120;28;20069;-74
2022/03/19 09:16:40;;;;;;;23.50;17.20;;;;;;;;;;5014242;28;20471;-75
2022/03/19 09:19:05;;;;;;;25.35;17.55;;;;;;;;;;5014109;28;20471;-75
2022/03/19 09:21:31;;;;;;;28.45;16.63;;;;;;;;;;5012742;28;20562;-74
2022/03/19 09:23:57;;;;;;;22.30;15.30;;;;;;;;;;5013992;28;20396;-74
2022/03/19 09:26:22;;;;;;;25.05;15.85;;;;;;;;;;5014239;28;20474;-75
2022/03/19 09:28:48;;;;;;;22.85;15.55;;;;;;;;;;5012440;28;20084;-75
2022/03/19 09:31:15;;;;;;;35.20;22.30;;;;;;;;;;5013724;28;20018;-73
2022/03/19 09:33:41;;;;;;;22.73;15.43;;;;;;;;;;5014221;28;20670;-75
2022/03/19 09:36:06;;;;;;;37.45;25.45;;;;;;;;;;5013770;28;20025;-74
2022/03/19 09:38:32;;;;;;;26.57;17.67;;;;;;;;;;5013646;28;20033;-73
2022/03/19 09:40:58;;;;;;;22.63;15.27;;;;;;;;;;5013353;28;20267;-74
2022/03/19 09:43:23;;;;;;;22.45;14.77;;;;;;;;;;5013701;28;20256;-74
2022/03/19 09:45:49;;;;;;;20.48;14.63;;;;;;;;;;5013757;28;20022;-74
2022/03/19 09:48:14;;;;;;;23.23;14.43;;;;;;;;;;5013624;28;20113;-74
2022/03/19 09:50:39;;;;;;;20.55;14.18;;;;;;;;;;5013411;28;20025;-74
2022/03/19 09:53:05;;;;;;;19.05;12.95;;;;;;;;;;5013636;28;20021;-74
2022/03/19 09:55:30;;;;;;;21.52;12.75;;;;;;;;;;5013400;28;20080;-75
2022/03/19 09:57:56;;;;;;;21.60;12.68;;;;;;;;;;5013671;28;20115;-74
2022/03/19 10:00:22;;;;;;;24.70;14.77;;;;;;;;;;5013519;28;20026;-73
2022/03/19 10:02:53;;;;;;;29.63;14.50;;;;;;;;;;5016166;28;20022;-74
2022/03/19 10:10:47;;;;;;;23.80;14.90;;;;;;;;;;5013231;28;20399;-74
2022/03/19 10:13:12;;;;;;;24.45;15.23;;;;;;;;;;5011460;28;20045;-74
2022/03/19 10:15:41;;;;;;;22.10;13.23;;;;;;;;;;5013087;28;20033;-76
2022/03/19 10:18:10;;;;;;;21.90;13.10;;;;;;;;;;5012962;28;20279;-73
2022/03/19 10:20:36;;;;;;;21.13;14.93;;;;;;;;;;5013078;28;20083;-74
2022/03/19 10:23:02;;;;;;;24.65;15.75;;;;;;;;;;5012379;28;20026;-74
2022/03/19 10:25:28;;;;;;;28.95;19.08;;;;;;;;;;5011681;28;20061;-75
2022/03/19 10:27:59;;;;;;;22.65;13.82;;;;;;;;;;5012814;28;20548;-76
2022/03/19 10:30:27;;;;;;;27.70;16.83;;;;;;;;;;5012882;28;20057;-74
2022/03/19 10:32:54;;;;;;;32.70;23.17;;;;;;;;;;5013188;28;20113;-74
2022/03/19 10:35:29;;;;;;;21.67;13.65;;;;;;;;;;5012399;28;20053;-74
2022/03/19 10:37:54;;;;;;;20.67;13.82;;;;;;;;;;5012932;28;20053;-74
2022/03/19 10:40:20;;;;;;;26.30;15.25;;;;;;;;;;5012502;28;20082;-74
2022/03/19 10:42:46;;;;;;;21.40;14.45;;;;;;;;;;5011273;28;20340;-74
2022/03/19 10:45:12;;;;;;;22.38;14.45;;;;;;;;;;5011283;28;20021;-74
2022/03/19 10:47:41;;;;;;;25.35;15.35;;;;;;;;;;5012456;28;20034;-74
2022/03/19 10:50:06;;;;;;;22.23;15.48;;;;;;;;;;5012211;28;20112;-74
2022/03/19 10:52:33;;;;;;;21.60;14.80;;;;;;;;;;5012151;28;20117;-74
2022/03/19 10:55:03;;;;;;;26.75;16.40;;;;;;;;;;5012515;28;20018;-74
2022/03/19 10:57:28;;;;;;;22.73;15.20;;;;;;;;;;5013162;28;20089;-74
2022/03/19 10:59:54;;;;;;;22.95;14.73;;;;;;;;;;5012100;28;20120;-73
2022/03/19 11:02:19;;;;;;;29.30;15.20;;;;;;;;;;5012165;28;20026;-74
2022/03/19 11:04:46;;;;;;;20.55;13.63;;;;;;;;;;5012475;28;20037;-74
2022/03/19 11:07:12;;;;;;;22.17;14.73;;;;;;;;;;5010685;28;20030;-74
2022/03/19 11:09:38;;;;;;;18.60;13.02;;;;;;;;;;5012081;28;20025;-75
2022/03/19 11:12:05;;;;;;;22.35;14.57;;;;;;;;;;5012924;28;20113;-75
2022/03/19 11:14:31;;;;;;;24.27;15.15;;;;;;;;;;5013050;28;20049;-74
2022/03/19 11:17:24;;;;;;;23.20;14.45;;;;;;;;;;5016567;28;20109;-74
2022/03/19 11:19:50;;;;;;;24.65;16.30;;;;;;;;;;5014046;28;20025;-74
2022/03/19 11:22:17;;;;;;;25.20;15.52;;;;;;;;;;5015802;28;20017;-76
2022/03/19 11:25:01;;;;;;;25.13;14.88;;;;;;;;;;5016037;28;20022;-74
2022/03/19 11:27:28;;;;;;;24.33;14.30;;;;;;;;;;5015331;28;20026;-77
2022/03/19 11:29:56;;;;;;;27.73;15.15;;;;;;;;;;5013149;28;20494;-74
2022/03/19 11:32:22;;;;;;;28.17;15.85;;;;;;;;;;5011785;28;20014;-74
2022/03/19 11:34:48;;;;;;;23.65;13.98;;;;;;;;;;5011268;28;20092;-73
2022/03/19 11:37:13;;;;;;;21.38;13.40;;;;;;;;;;5011526;28;20040;-74
2022/03/19 11:39:38;;;;;;;23.88;14.27;;;;;;;;;;5011612;28;20494;-74
2022/03/19 11:42:09;;;;;;;23.65;13.73;;;;;;;;;;5011411;28;20025;-73
2022/03/19 11:44:48;;;;;;;23.58;14.02;;;;;;;;;;5010257;28;20117;-75
2022/03/19 11:47:16;;;;;;;23.77;14.27;;;;;;;;;;5011452;28;20557;-74
2022/03/19 11:49:52;;;;;;;22.83;14.10;;;;;;;;;;5011536;28;20036;-73
2022/03/19 11:52:26;;;;;;;21.40;13.48;;;;;;;;;;5012284;28;20036;-74
2022/03/19 11:55:02;;;;;;;25.30;14.20;;;;;;;;;;5010805;28;20433;-74
2022/03/19 11:57:28;;;;;;;;;;;;;;;;;;5013358;28;20018;-74
2022/03/19 11:59:59;;;;;;;25.27;14.77;;;;;;;;;;5012438;28;19909;-74
2022/03/19 12:02:26;;;;;;;32.25;13.80;;;;;;;;;;5011684;28;20034;-74
2022/03/19 12:04:52;;;;;;;21.95;14.60;;;;;;;;;;5011646;28;20017;-75
2022/03/19 12:07:36;;;;;;;26.17;14.35;;;;;;;;;;5010803;28;20044;-75
2022/03/19 12:10:06;;;;;;;23.63;13.15;;;;;;;;;;5009772;28;20511;-75
2022/03/19 12:12:32;;;;;;;23.65;13.68;;;;;;;;;;5011178;28;20029;-74
2022/03/19 12:14:57;;;;;;;20.67;12.70;;;;;;;;;;5011264;28;20105;-73
2022/03/19 12:17:25;;;;;;;21.15;12.07;;;;;;;;;;5011029;28;20014;-74
2022/03/19 12:20:01;;;;;;;22.63;14.13;;;;;;;;;;5010985;28;20025;-74
2022/03/19 12:22:33;;;;;;;25.38;14.18;;;;;;;;;;5009675;28;20033;-73
2022/03/19 12:25:17;;;;;;;21.20;12.98;;;;;;;;;;5009774;28;20411;-73
2022/03/19 12:27:49;;;;;;;21.10;13.40;;;;;;;;;;5010868;28;20103;-73
2022/03/19 12:30:15;;;;;;;23.75;13.32;;;;;;;;;;5010922;28;20072;-74
2022/03/19 12:32:44;;;;;;;24.58;13.48;;;;;;;;;;5010927;28;20025;-74
2022/03/19 12:35:09;;;;;;;20.15;13.00;;;;;;;;;;5010065;28;20030;-74
2022/03/19 12:37:45;;;;;;;25.33;13.15;;;;;;;;;;5011141;28;20018;-74
2022/03/19 12:40:16;;;;;;;17.27;11.20;;;;;;;;;;5010772;28;20495;-75
2022/03/19 12:42:42;;;;;;;23.25;14.07;;;;;;;;;;5010780;28;20030;-73
2022/03/19 12:45:07;;;;;;;21.65;12.80;;;;;;;;;;5012309;28;20469;-74
2022/03/19 12:47:32;;;;;;;20.38;13.13;;;;;;;;;;5015915;28;21058;-75
2022/03/19 12:49:58;;;;;;;23.30;13.05;;;;;;;;;;5014607;28;20018;-73
2022/03/19 12:52:23;;;;;;;22.08;13.40;;;;;;;;;;5014691;28;20026;-73
2022/03/19 12:54:55;;;;;;;22.17;12.95;;;;;;;;;;5013145;28;20028;-74
2022/03/19 12:57:23;;;;;;;23.13;13.25;;;;;;;;;;5013368;28;20038;-74
2022/03/19 12:59:49;;;;;;;24.35;14.55;;;;;;;;;;5013301;28;20088;-75
2022/03/19 13:02:15;;;;;;;22.55;12.93;;;;;;;;;;5013036;28;20026;-75
2022/03/19 13:04:43;;;;;;;22.42;13.70;;;;;;;;;;5014948;28;20537;-74
2022/03/19 13:07:08;;;;;;;23.15;13.90;;;;;;;;;;5013101;28;20030;-74
2022/03/19 13:09:34;;;;;;;25.52;14.85;;;;;;;;;;5013954;28;20036;-75
2022/03/19 13:12:01;;;;;;;20.33;12.27;;;;;;;;;;5014290;28;20112;-74
2022/03/19 13:14:26;;;;;;;20.50;12.35;;;;;;;;;;5012974;28;20046;-74
2022/03/19 13:16:54;;;;;;;24.48;13.15;;;;;;;;;;5013992;28;20026;-74
2022/03/19 13:19:20;;;;;;;25.00;13.63;;;;;;;;;;5013784;28;20117;-76
2022/03/19 13:21:48;;;;;;;20.67;11.75;;;;;;;;;;5014251;28;20045;-74
2022/03/19 13:24:14;;;;;;;22.92;11.80;;;;;;;;;;5014436;28;20359;-77
2022/03/19 13:26:41;;;;;;;20.10;12.13;;;;;;;;;;5016371;28;20030;-80
2022/03/19 13:29:10;;;;;;;19.95;12.05;;;;;;;;;;5018243;28;20010;-77
2022/03/19 13:31:36;;;;;;;22.83;12.80;;;;;;;;;;5014610;28;20022;-75
2022/03/19 13:34:03;;;;;;;22.58;11.90;;;;;;;;;;5014306;28;20030;-74
2022/03/19 13:36:29;;;;;;;24.45;13.52;;;;;;;;;;5015646;28;20048;-74
2022/03/19 13:38:54;;;;;;;25.77;11.82;;;;;;;;;;5014580;28;20406;-75
2022/03/19 13:41:19;;;;;;;18.23;11.60;;;;;;;;;;5013707;28;20483;-74
2022/03/19 13:43:45;;;;;;;17.88;11.65;;;;;;;;;;5014521;28;20022;-75
2022/03/19 13:46:22;;;;;;;21.42;12.80;;;;;;;;;;5013774;28;20064;-74
2022/03/19 13:48:49;;;;;;;20.48;12.65;;;;;;;;;;5013383;28;20468;-76
2022/03/19 13:51:16;;;;;;;22.23;13.30;;;;;;;;;;5013027;28;20117;-74
2022/03/19 13:53:43;;;;;;;20.00;12.23;;;;;;;;;;5012059;28;20101;-74
2022/03/19 13:56:10;;;;;;;20.25;10.77;;;;;;;;;;5012775;28;20026;-74
2022/03/19 13:58:35;;;;;;;18.42;12.23;;;;;;;;;;5013191;28;20006;-74
2022/03/19 14:01:10;;;;;;;22.25;12.02;;;;;;;;;;5012061;28;20846;-74
2022/03/19 14:03:40;;;;;;;21.88;13.95;;;;;;;;;;5013466;28;20025;-74
2022/03/19 14:06:06;;;;;;;22.73;13.05;;;;;;;;;;4996639;28;20088;-74
2022/03/19 14:08:31;;;;;;;19.27;12.02;;;;;;;;;;5013112;28;20030;-74
2022/03/19 14:10:57;;;;;;;20.13;12.90;;;;;;;;;;5013229;28;20109;-74
2022/03/19 14:13:32;;;;;;;26.50;14.63;;;;;;;;;;5011714;28;20042;-74
2022/03/19 14:15:58;;;;;;;21.83;12.52;;;;;;;;;;5012965;28;20026;-74
2022/03/19 14:18:23;;;;;;;20.17;12.50;;;;;;;;;;5012912;28;20032;-75
2022/03/19 14:20:49;;;;;;;21.23;13.03;;;;;;;;;;5013040;28;20030;-74
2022/03/19 14:23:16;;;;;;;27.83;13.43;;;;;;;;;;5012772;28;20739;-74
2022/03/19 14:25:42;;;;;;;23.77;12.93;;;;;;;;;;5011689;28;20029;-74
2022/03/19 14:28:08;;;;;;;20.45;11.93;;;;;;;;;;5012994;28;20549;-75